Time;durP1;ratioP1;P1;durP2;ratioP2;P2;SDS_P1;SDS_P2;PMS_P1;PMS_P2;Temp;Humidity;BMP_temperature;BMP_pressure;BME280_temperature;BME280_humidity;BME280_pressure;Samples;Min_cycle;Max_cycle;Signal;HPM_P1;HPM_P2
2024/04/13 00:00:13;;;;;;;6.60;4.33;;;9.70;7.10;;;;;;5379229;26;20334;-71
2024/04/13 00:02:42;;;;;;;5.77;3.93;;;9.70;7.40;;;;;;5379693;26;20877;-71
2024/04/13 00:05:08;;;;;;;5.77;4.37;;;9.60;7.10;;;;;;5379021;26;20975;-70
2024/04/13 00:07:33;;;;;;;5.03;3.80;;;9.60;7.20;;;;;;5379772;26;20585;-71
2024/04/13 00:09:59;;;;;;;8.07;4.60;;;9.60;7.40;;;;;;5349028;26;20243;-71
2024/04/13 00:12:25;;;;;;;5.37;3.90;;;9.50;8.10;;;;;;5348815;26;20230;-71
2024/04/13 00:14:52;;;;;;;13.83;4.87;;;9.50;8.20;;;;;;5378942;26;20500;-71
2024/04/13 00:17:18;;;;;;;5.43;4.10;;;9.40;8.40;;;;;;5379328;26;20240;-70
2024/04/13 00:19:45;;;;;;;5.07;4.30;;;9.40;8.00;;;;;;5379358;26;20960;-71
2024/04/13 00:22:11;;;;;;;6.50;4.87;;;9.40;8.30;;;;;;5379232;26;20223;-72
2024/04/13 00:24:37;;;;;;;5.20;4.30;;;9.40;9.30;;;;;;5378758;26;20521;-71
2024/04/13 00:27:03;;;;;;;7.70;4.80;;;9.30;9.90;;;;;;5379287;26;20231;-71
2024/04/13 00:29:31;;;;;;;8.23;5.33;;;9.30;10.00;;;;;;5348223;26;20631;-71
2024/04/13 00:31:57;;;;;;;4.27;3.60;;;9.20;10.50;;;;;;5379054;26;20507;-71
2024/04/13 00:34:23;;;;;;;6.17;4.23;;;9.20;11.00;;;;;;5379184;26;20536;-71
2024/04/13 00:36:49;;;;;;;5.00;3.60;;;9.20;11.60;;;;;;5348221;26;20468;-71
2024/04/13 00:39:14;;;;;;;6.90;4.67;;;9.20;11.20;;;;;;5379407;26;20272;-73
2024/04/13 00:41:40;;;;;;;5.20;4.40;;;9.10;11.70;;;;;;5379638;26;20232;-71
2024/04/13 00:44:05;;;;;;;8.00;4.20;;;9.20;11.70;;;;;;5378866;26;20321;-71
2024/04/13 00:46:32;;;;;;;7.47;4.37;;;9.10;11.80;;;;;;5379996;26;20404;-71
2024/04/13 00:48:59;;;;;;;9.37;4.50;;;9.10;12.10;;;;;;5379737;26;20325;-71
2024/04/13 00:51:26;;;;;;;8.83;4.77;;;9.10;12.10;;;;;;5347943;26;20801;-70
2024/04/13 00:53:53;;;;;;;7.60;4.50;;;9.10;12.00;;;;;;5378689;26;20448;-70
2024/04/13 00:56:19;;;;;;;8.97;5.30;;;9.10;11.60;;;;;;5378656;26;20509;-71
2024/04/13 00:58:45;;;;;;;7.13;3.63;;;9.10;11.60;;;;;;5379086;26;20462;-70
2024/04/13 01:01:13;;;;;;;5.60;4.37;;;9.10;11.70;;;;;;5381703;26;20534;-70
2024/04/13 01:03:43;;;;;;;6.20;4.80;;;9.10;11.50;;;;;;5381898;26;20227;-70
2024/04/13 01:06:13;;;;;;;7.70;5.80;;;9.10;12.10;;;;;;5351289;26;20465;-71
2024/04/13 01:08:38;;;;;;;8.13;4.30;;;9.10;11.70;;;;;;5381870;26;20521;-71
2024/04/13 01:11:04;;;;;;;7.63;4.93;;;9.00;11.10;;;;;;5351065;26;20460;-70
2024/04/13 01:13:30;;;;;;;4.93;3.63;;;9.00;11.50;;;;;;5351189;26;20242;-71
2024/04/13 01:15:58;;;;;;;7.50;4.43;;;8.90;12.40;;;;;;5382461;26;20799;-71
2024/04/13 01:18:24;;;;;;;6.00;4.20;;;8.80;12.80;;;;;;5351297;26;20745;-71
2024/04/13 01:20:50;;;;;;;5.67;4.50;;;8.80;14.00;;;;;;5382108;26;20458;-71
2024/04/13 01:23:16;;;;;;;8.40;5.53;;;8.80;14.00;;;;;;5382282;26;20326;-70
2024/04/13 01:25:42;;;;;;;8.07;4.63;;;8.80;14.80;;;;;;5351375;26;20597;-71
2024/04/13 01:28:09;;;;;;;6.00;4.70;;;8.70;15.50;;;;;;5382488;26;20905;-70
2024/04/13 01:30:35;;;;;;;6.40;4.40;;;8.70;15.80;;;;;;5382260;26;20448;-71
2024/04/13 01:33:01;;;;;;;7.50;5.20;;;8.70;15.40;;;;;;5350749;26;20854;-71
2024/04/13 01:35:27;;;;;;;8.53;4.87;;;8.60;15.40;;;;;;5381867;26;20459;-71
2024/04/13 01:37:52;;;;;;;8.23;4.57;;;8.60;15.70;;;;;;5384943;21;20557;-71
2024/04/13 01:40:18;;;;;;;8.10;4.73;;;8.60;15.40;;;;;;5341697;26;20264;-71
2024/04/13 01:42:46;;;;;;;9.00;4.80;;;8.60;15.30;;;;;;5370514;26;20326;-69
2024/04/13 01:45:12;;;;;;;6.13;5.17;;;8.60;15.60;;;;;;5340745;26;20284;-70
2024/04/13 01:47:38;;;;;;;6.57;5.07;;;8.60;16.20;;;;;;5341150;26;20478;-71
2024/04/13 01:50:04;;;;;;;5.70;5.00;;;8.50;16.00;;;;;;5339483;26;21033;-71
2024/04/13 01:52:30;;;;;;;8.10;5.10;;;8.40;17.10;;;;;;5341118;26;20457;-70
2024/04/13 01:54:56;;;;;;;9.30;4.83;;;8.40;17.80;;;;;;5339645;26;20471;-70
2024/04/13 01:57:22;;;;;;;9.60;5.70;;;8.30;18.00;;;;;;5340484;26;20236;-72
2024/04/13 01:59:47;;;;;;;10.23;4.43;;;8.30;18.00;;;;;;5340376;26;20560;-71
2024/04/13 02:02:13;;;;;;;8.70;5.67;;;8.20;18.60;;;;;;5340337;26;20604;-72
2024/04/13 02:04:39;;;;;;;7.07;4.60;;;8.30;19.30;;;;;;5343348;26;20223;-71
2024/04/13 02:07:04;;;;;;;6.90;5.10;;;8.20;19.50;;;;;;5342339;26;20536;-70
2024/04/13 02:09:33;;;;;;;7.93;5.60;;;8.20;19.40;;;;;;5342353;26;20283;-70
2024/04/13 02:12:00;;;;;;;7.13;4.50;;;8.20;19.30;;;;;;5342112;26;20505;-72
2024/04/13 02:14:26;;;;;;;12.30;5.40;;;8.30;19.80;;;;;;5341355;26;20457;-70
2024/04/13 02:16:52;;;;;;;11.03;6.57;;;8.30;18.70;;;;;;5343827;26;20450;-70
2024/04/13 02:19:18;;;;;;;8.07;5.80;;;8.30;18.00;;;;;;5343741;26;20988;-70
2024/04/13 02:21:44;;;;;;;5.70;4.97;;;8.30;18.00;;;;;;5342876;26;20497;-72
2024/04/13 02:24:09;;;;;;;6.10;5.30;;;8.30;17.50;;;;;;5342704;26;20234;-71
2024/04/13 02:26:35;;;;;;;6.43;5.30;;;8.30;17.20;;;;;;5343340;26;20227;-72
2024/04/13 02:29:01;;;;;;;7.07;4.60;;;8.20;16.60;;;;;;5343540;26;20234;-71
2024/04/13 02:31:26;;;;;;;7.77;5.17;;;8.20;16.80;;;;;;5344299;26;20776;-71
2024/04/13 02:33:52;;;;;;;9.50;5.23;;;8.20;16.80;;;;;;5341205;26;20243;-71
2024/04/13 02:36:18;;;;;;;10.40;5.63;;;8.20;16.50;;;;;;5340845;26;20543;-71
2024/04/13 02:38:44;;;;;;;8.37;5.00;;;8.20;16.60;;;;;;5338437;26;20695;-72
2024/04/13 02:41:09;;;;;;;8.97;4.93;;;8.20;17.00;;;;;;5340545;26;20234;-71
2024/04/13 02:43:38;;;;;;;8.67;4.43;;;8.10;17.10;;;;;;5340063;26;20623;-71
2024/04/13 02:46:11;;;;;;;10.17;5.47;;;8.10;18.40;;;;;;5338514;26;20231;-72
2024/04/13 02:48:47;;;;;;;7.53;5.37;;;8.10;17.30;;;;;;5339975;26;20506;-71
2024/04/13 02:51:14;;;;;;;9.80;5.50;;;8.10;17.90;;;;;;5344786;26;20946;-70
2024/04/13 02:53:39;;;;;;;7.43;5.60;;;8.10;17.00;;;;;;5345790;26;20512;-70
2024/04/13 02:56:05;;;;;;;8.33;5.57;;;8.00;17.80;;;;;;5345314;26;20502;-70
2024/04/13 02:58:31;;;;;;;8.73;5.60;;;8.00;17.80;;;;;;5344712;26;20246;-70
2024/04/13 03:00:59;;;;;;;5.10;4.17;;;8.00;17.80;;;;;;5338163;26;21027;-71
2024/04/13 03:03:25;;;;;;;6.93;5.10;;;8.00;18.50;;;;;;5343256;26;20505;-70
2024/04/13 03:06:08;;;;;;;7.63;4.90;;;8.00;17.80;;;;;;5340691;26;20568;-72
2024/04/13 03:08:34;;;;;;;7.37;5.13;;;7.90;17.70;;;;;;5338576;26;20481;-72
2024/04/13 03:11:01;;;;;;;5.67;4.77;;;7.90;18.40;;;;;;5338370;26;20515;-71
2024/04/13 03:13:28;;;;;;;7.70;5.80;;;7.90;18.10;;;;;;5338065;26;20833;-71
2024/04/13 03:16:00;;;;;;;9.10;4.80;;;7.90;18.80;;;;;;5340001;26;20505;-72
2024/04/13 03:18:26;;;;;;;6.60;4.90;;;7.90;19.80;;;;;;5337844;26;20511;-71
2024/04/13 03:20:52;;;;;;;6.60;5.40;;;7.80;20.10;;;;;;5342982;26;20453;-70
2024/04/13 03:23:18;;;;;;;9.10;5.20;;;7.80;19.90;;;;;;5340565;26;20290;-71
2024/04/13 03:25:43;;;;;;;8.23;5.37;;;7.80;20.40;;;;;;5340262;26;20552;-71
2024/04/13 03:28:09;;;;;;;8.37;5.00;;;7.80;21.20;;;;;;5340909;26;20277;-70
2024/04/13 03:30:35;;;;;;;7.60;4.13;;;7.80;20.70;;;;;;5339955;26;20233;-71
2024/04/13 03:33:03;;;;;;;9.87;5.10;;;7.80;20.10;;;;;;5339436;26;20665;-70
2024/04/13 03:35:28;;;;;;;8.50;5.07;;;7.80;20.50;;;;;;5339063;26;20537;-70
2024/04/13 03:37:57;;;;;;;10.43;5.60;;;7.80;20.80;;;;;;5338354;26;20468;-71
2024/04/13 03:40:23;;;;;;;9.77;6.50;;;7.80;21.10;;;;;;5339279;26;20273;-71
2024/04/13 03:42:48;;;;;;;12.47;6.40;;;7.90;20.60;;;;;;5338617;26;20453;-71
2024/04/13 03:45:16;;;;;;;9.00;6.43;;;7.90;20.30;;;;;;5336315;26;20727;-71
2024/04/13 03:47:43;;;;;;;10.13;4.50;;;7.90;20.00;;;;;;5340018;26;20755;-70
2024/04/13 03:50:09;;;;;;;7.67;4.87;;;7.80;20.50;;;;;;5336509;26;20468;-71
2024/04/13 03:52:34;;;;;;;8.90;5.50;;;7.80;20.90;;;;;;5335744;26;20457;-71
2024/04/13 03:55:00;;;;;;;7.00;4.53;;;7.80;21.90;;;;;;5337584;26;20453;-71
2024/04/13 03:57:25;;;;;;;9.00;5.10;;;7.80;20.60;;;;;;5339331;26;20303;-71
2024/04/13 03:59:51;;;;;;;7.50;5.13;;;7.80;20.90;;;;;;5339673;26;20245;-73
2024/04/13 04:02:17;;;;;;;8.57;5.17;;;7.70;21.30;;;;;;5339989;26;20223;-71
2024/04/13 04:04:43;;;;;;;8.73;5.17;;;7.80;21.60;;;;;;5339274;26;20261;-72
2024/04/13 04:07:08;;;;;;;7.00;6.03;;;7.80;20.00;;;;;;5339566;26;20472;-72
2024/04/13 04:09:34;;;;;;;7.30;5.87;;;7.80;19.90;;;;;;5338123;26;20233;-70
2024/04/13 04:12:04;;;;;;;6.83;6.10;;;7.80;20.60;;;;;;5339693;26;20230;-70
2024/04/13 04:14:29;;;;;;;10.00;6.10;;;7.80;21.30;;;;;;5339039;26;20916;-72
2024/04/13 04:16:55;;;;;;;9.23;6.80;;;7.80;21.90;;;;;;5339424;26;20468;-71
2024/04/13 04:19:22;;;;;;;10.30;5.60;;;7.80;21.90;;;;;;5338632;26;20237;-71
2024/04/13 04:21:48;;;;;;;7.40;6.50;;;7.80;21.90;;;;;;5340582;26;20253;-72
2024/04/13 04:24:14;;;;;;;7.57;5.10;;;7.80;22.60;;;;;;5341844;26;20448;-72
2024/04/13 04:26:40;;;;;;;8.80;6.70;;;7.70;22.90;;;;;;5339400;26;20452;-69
2024/04/13 04:29:05;;;;;;;16.90;5.73;;;7.80;22.50;;;;;;5339290;26;20253;-71
2024/04/13 04:31:31;;;;;;;10.17;6.10;;;7.70;23.40;;;;;;5338444;26;20267;-71
2024/04/13 04:33:56;;;;;;;11.03;6.17;;;7.70;23.50;;;;;;5338275;26;20226;-71
2024/04/13 04:36:22;;;;;;;7.40;5.50;;;7.70;24.30;;;;;;5341165;26;20260;-71
2024/04/13 04:38:49;;;;;;;7.73;6.07;;;7.70;24.40;;;;;;5340898;26;20238;-71
2024/04/13 04:41:14;;;;;;;8.40;5.60;;;7.60;24.30;;;;;;5341028;26;20260;-70
2024/04/13 04:43:40;;;;;;;9.10;5.90;;;7.70;24.90;;;;;;5342725;26;20460;-71
2024/04/13 04:46:08;;;;;;;9.83;6.70;;;7.70;24.80;;;;;;5340858;26;20262;-71
2024/04/13 04:48:34;;;;;;;16.63;6.63;;;7.70;24.10;;;;;;5341470;26;20246;-71
2024/04/13 04:51:01;;;;;;;11.60;7.47;;;7.70;24.30;;;;;;5343419;26;20452;-71
2024/04/13 04:53:27;;;;;;;7.33;6.63;;;7.70;24.50;;;;;;5339443;26;20516;-70
2024/04/13 04:55:53;;;;;;;11.07;6.97;;;7.70;23.60;;;;;;5340522;26;20456;-70
2024/04/13 04:58:18;;;;;;;10.50;7.10;;;7.70;23.40;;;;;;5342289;26;20280;-71
2024/04/13 05:00:45;;;;;;;12.90;6.80;;;7.70;22.70;;;;;;5342780;26;20697;-71
2024/04/13 05:03:11;;;;;;;12.77;7.50;;;7.70;23.60;;;;;;5342322;26;20733;-69
2024/04/13 05:05:36;;;;;;;10.27;6.13;;;7.80;21.90;;;;;;5342231;26;20505;-71
2024/04/13 05:08:02;;;;;;;11.10;5.97;;;7.80;21.90;;;;;;5340804;26;20346;-71
2024/04/13 05:10:27;;;;;;;9.70;5.97;;;7.90;21.40;;;;;;5341049;26;20700;-71
2024/04/13 05:12:53;;;;;;;7.80;5.80;;;7.90;20.70;;;;;;5342774;26;20221;-69
2024/04/13 05:15:19;;;;;;;10.23;6.07;;;8.00;20.90;;;;;;5340552;26;20230;-70
2024/04/13 05:17:45;;;;;;;8.50;7.37;;;8.00;19.20;;;;;;5341452;26;20476;-71
2024/04/13 05:20:11;;;;;;;9.47;5.93;;;8.00;18.90;;;;;;5340265;26;20226;-70
2024/04/13 05:22:37;;;;;;;7.73;5.97;;;8.00;18.10;;;;;;5342292;26;20712;-70
2024/04/13 05:25:03;;;;;;;11.87;6.80;;;8.00;17.80;;;;;;5341835;26;20494;-71
2024/04/13 05:27:29;;;;;;;8.40;5.87;;;8.00;17.80;;;;;;5341572;26;20299;-71
2024/04/13 05:29:55;;;;;;;9.20;6.67;;;8.00;19.40;;;;;;5338347;26;20235;-70
2024/04/13 05:32:21;;;;;;;7.67;5.60;;;8.00;18.50;;;;;;5339316;26;20453;-70
2024/04/13 05:34:47;;;;;;;9.33;6.83;;;8.20;17.90;;;;;;5340545;26;20457;-71
2024/04/13 05:37:12;;;;;;;8.47;6.27;;;8.20;17.90;;;;;;5337387;26;20472;-72
2024/04/13 05:39:38;;;;;;;9.43;6.20;;;8.30;17.40;;;;;;5341673;26;20578;-71
2024/04/13 05:42:04;;;;;;;7.27;4.53;;;8.50;17.00;;;;;;5340043;26;20231;-70
2024/04/13 05:44:29;;;;;;;7.87;5.50;;;8.60;17.70;;;;;;5339182;26;20230;-70
2024/04/13 05:46:55;;;;;;;10.50;6.33;;;8.80;17.50;;;;;;5339791;26;20226;-71
2024/04/13 05:49:21;;;;;;;7.10;5.73;;;9.00;16.60;;;;;;5338089;26;20481;-70
2024/04/13 05:51:48;;;;;;;6.10;4.20;;;10.20;15.60;;;;;;5339049;26;20235;-70
2024/04/13 05:54:13;;;;;;;5.30;4.37;;;12.60;1.40;;;;;;5341143;26;20294;-70
2024/04/13 05:56:39;;;;;;;6.73;4.87;;;15.20;1.00;;;;;;5342122;26;20460;-71
2024/04/13 05:59:05;;;;;;;7.57;4.50;;;18.90;1.00;;;;;;5343995;26;20286;-70
2024/04/13 06:01:31;;;;;;;4.23;3.83;;;;;;;;;;5344681;26;20221;-70
2024/04/13 06:03:57;;;;;;;10.77;5.10;;;22.00;1.00;;;;;;5343637;26;20258;-72
2024/04/13 06:06:23;;;;;;;7.50;4.90;;;21.80;1.00;;;;;;5345387;26;20510;-71
2024/04/13 06:08:48;;;;;;;6.20;5.40;;;22.30;1.00;;;;;;5344269;26;20238;-71
2024/04/13 06:11:14;;;;;;;7.50;5.47;;;23.10;1.00;;;;;;5344403;26;20508;-70
2024/04/13 06:13:41;;;;;;;16.27;6.60;;;24.00;1.00;;;;;;5341155;26;20534;-71
2024/04/13 06:16:06;;;;;;;8.00;6.60;;;24.30;1.00;;;;;;5341254;26;20230;-71
2024/04/13 06:18:32;;;;;;;5.93;5.30;;;24.90;1.00;;;;;;5341172;26;20532;-70
2024/04/13 06:20:58;;;;;;;5.67;5.17;;;25.20;1.00;;;;;;5343357;26;20281;-71
2024/04/13 06:23:23;;;;;;;6.47;5.00;;;25.60;1.00;;;;;;5340955;26;20280;-71
2024/04/13 06:25:49;;;;;;;5.93;5.17;;;26.60;1.00;;;;;;5345172;26;20222;-71
2024/04/13 06:28:15;;;;;;;5.83;5.30;;;27.50;1.00;;;;;;5342104;26;20234;-70
2024/04/13 06:30:44;;;;;;;6.10;5.50;;;27.50;1.00;;;;;;5341845;26;20268;-71
2024/04/13 06:33:12;;;;;;;5.27;4.80;;;27.80;1.00;;;;;;5340729;26;20444;-71
2024/04/13 06:35:38;;;;;;;6.20;5.70;;;27.20;1.00;;;;;;5340355;26;20461;-71
2024/04/13 06:38:04;;;;;;;6.30;5.80;;;27.50;1.00;;;;;;5340194;26;20516;-71
2024/04/13 06:40:35;;;;;;;6.63;5.83;;;28.20;1.00;;;;;;5339039;26;20765;-71
2024/04/13 06:43:01;;;;;;;5.40;4.90;;;29.00;1.00;;;;;;5339098;26;20269;-70
2024/04/13 06:45:27;;;;;;;6.53;5.70;;;29.00;1.00;;;;;;5337434;26;20461;-72
2024/04/13 06:47:52;;;;;;;6.37;5.80;;;29.30;1.00;;;;;;5339218;26;20578;-71
2024/04/13 06:50:18;;;;;;;6.03;5.43;;;29.50;1.00;;;;;;5339348;26;20449;-72
2024/04/13 06:52:43;;;;;;;5.70;5.03;;;29.60;1.00;;;;;;5338796;26;20697;-71
2024/04/13 06:55:09;;;;;;;6.30;5.80;;;30.30;1.00;;;;;;5339199;26;20740;-72
2024/04/13 06:57:35;;;;;;;6.67;5.97;;;29.90;1.00;;;;;;5338693;26;20238;-70
2024/04/13 07:00:00;;;;;;;7.10;6.20;;;29.80;1.00;;;;;;5339431;26;20327;-71
2024/04/13 07:02:26;;;;;;;7.70;6.90;;;30.40;1.00;;;;;;5339090;26;20488;-72
2024/04/13 07:04:52;;;;;;;7.73;6.57;;;30.80;1.00;;;;;;5339402;26;20229;-72
2024/04/13 07:07:18;;;;;;;14.90;7.50;;;30.20;1.00;;;;;;5338824;26;20359;-73
2024/04/13 07:09:44;;;;;;;10.07;7.20;;;29.30;1.00;;;;;;5339205;26;20457;-72
2024/04/13 07:12:09;;;;;;;9.43;6.47;;;29.50;1.00;;;;;;5341376;26;20511;-71
2024/04/13 07:14:35;;;;;;;7.77;6.97;;;29.00;1.00;;;;;;5346302;26;20222;-72
2024/04/13 07:17:04;;;;;;;6.97;6.37;;;29.20;1.00;;;;;;5343611;26;20229;-73
2024/04/13 07:19:30;;;;;;;7.23;6.53;;;30.00;1.00;;;;;;5342278;26;20309;-71
2024/04/13 07:21:56;;;;;;;6.63;6.03;;;30.10;1.00;;;;;;5341252;26;20449;-72
2024/04/13 07:24:22;;;;;;;7.40;5.87;;;29.60;1.00;;;;;;5339811;26;20453;-71
2024/04/13 07:26:47;;;;;;;7.40;6.70;;;29.50;1.00;;;;;;5337686;26;20230;-72
2024/04/13 07:29:14;;;;;;;7.00;6.40;;;29.60;1.00;;;;;;5336738;26;20461;-71
2024/04/13 07:31:39;;;;;;;6.93;6.33;;;31.10;1.00;;;;;;5336630;26;20508;-71
2024/04/13 07:34:06;;;;;;;7.40;5.90;;;;;;;;;;5336103;26;20225;-70
2024/04/13 07:36:31;;;;;;;7.43;6.83;;;30.40;1.00;;;;;;5337026;26;20269;-72
2024/04/13 07:38:57;;;;;;;7.10;6.10;;;27.70;1.00;;;;;;5349986;21;20508;-71
2024/04/13 07:41:22;;;;;;;7.67;6.50;;;25.90;1.00;;;;;;5335614;26;20248;-71
2024/04/13 07:43:48;;;;;;;7.63;6.30;;;24.10;1.00;;;;;;5335356;26;20759;-71
2024/04/13 07:46:13;;;;;;;6.47;5.67;;;23.50;1.00;;;;;;5335833;26;20217;-72
2024/04/13 07:48:40;;;;;;;8.53;6.40;;;24.20;1.00;;;;;;5335786;26;20233;-71
2024/04/13 07:51:05;;;;;;;7.30;6.37;;;24.60;1.00;;;;;;5333869;26;20225;-70
2024/04/13 07:53:34;;;;;;;7.10;6.50;;;25.10;1.00;;;;;;5333218;26;20456;-71
2024/04/13 07:56:00;;;;;;;8.33;6.80;;;24.30;1.00;;;;;;5333561;26;20226;-71
2024/04/13 07:58:25;;;;;;;6.60;5.77;;;23.30;1.00;;;;;;5335180;26;20521;-71
2024/04/13 08:00:51;;;;;;;6.93;6.20;;;22.80;1.00;;;;;;5335336;26;20221;-71
2024/04/13 08:03:16;;;;;;;5.80;5.30;;;22.60;1.00;;;;;;5333289;26;20764;-71
2024/04/13 08:05:42;;;;;;;7.97;6.20;;;22.20;1.00;;;;;;5333740;26;20229;-71
2024/04/13 08:08:08;;;;;;;6.60;5.57;;;23.10;1.00;;;;;;5335196;26;20281;-70
2024/04/13 08:10:42;;;;;;;6.93;6.17;;;24.80;1.00;;;;;;5335140;26;20789;-71
2024/04/13 08:13:08;;;;;;;13.07;7.80;;;26.70;1.00;;;;;;5338257;26;20221;-71
2024/04/13 08:15:38;;;;;;;8.13;7.10;;;28.20;1.00;;;;;;5338236;26;20591;-71
2024/04/13 08:18:04;;;;;;;9.97;6.77;;;28.60;1.00;;;;;;5337272;26;20536;-71
2024/04/13 08:20:30;;;;;;;7.37;6.53;;;29.80;1.00;;;;;;5339004;26;20449;-71
2024/04/13 08:22:55;;;;;;;7.70;6.90;;;30.60;1.00;;;;;;5338375;26;20689;-71
2024/04/13 08:25:21;;;;;;;15.13;6.00;;;31.70;1.00;;;;;;5336333;26;20322;-71
2024/04/13 08:27:46;;;;;;;6.87;6.27;;;32.00;1.00;;;;;;5338488;26;20265;-71
2024/04/13 08:30:13;;;;;;;7.50;6.30;;;;;;;;;;5336622;26;20230;-72
2024/04/13 08:32:39;;;;;;;7.37;6.70;;;;;;;;;;5338314;26;20226;-72
2024/04/13 08:35:08;;;;;;;6.63;6.03;;;33.30;1.00;;;;;;5338065;26;20453;-72
2024/04/13 08:37:33;;;;;;;6.83;6.13;;;33.40;1.00;;;;;;5338456;26;20504;-71
2024/04/13 08:39:59;;;;;;;8.07;6.80;;;33.30;1.00;;;;;;5338491;26;20472;-71
2024/04/13 08:42:33;;;;;;;6.23;5.73;;;33.80;1.00;;;;;;5336481;26;20233;-71
2024/04/13 08:44:59;;;;;;;7.93;6.37;;;;;;;;;;5338678;26;20251;-72
2024/04/13 08:47:27;;;;;;;5.93;5.50;;;;;;;;;;5338400;26;20574;-72
2024/04/13 08:49:53;;;;;;;6.63;6.07;;;34.40;1.00;;;;;;5340167;26;20523;-72
2024/04/13 08:52:20;;;;;;;6.60;6.00;;;33.40;1.00;;;;;;5339912;26;20451;-72
2024/04/13 08:54:47;;;;;;;6.43;5.83;;;30.90;1.00;;;;;;5340199;26;20456;-72
2024/04/13 08:57:19;;;;;;;6.50;5.90;;;27.90;1.00;;;;;;5339391;26;20847;-71
2024/04/13 08:59:48;;;;;;;9.77;6.40;;;25.60;1.00;;;;;;5339346;26;20464;-72
2024/04/13 09:02:16;;;;;;;6.97;6.37;;;24.00;1.00;;;;;;5337061;26;20876;-72
2024/04/13 09:04:42;;;;;;;7.70;5.73;;;23.00;1.00;;;;;;5338138;26;20450;-72
2024/04/13 09:07:08;;;;;;;7.30;6.27;;;22.40;1.00;;;;;;5339265;26;21085;-72
2024/04/13 09:09:39;;;;;;;7.93;6.50;;;21.90;1.00;;;;;;5337111;26;20268;-72
2024/04/13 09:12:05;;;;;;;10.23;6.03;;;21.60;1.00;;;;;;5336499;26;20226;-71
2024/04/13 09:14:31;;;;;;;6.93;5.50;;;21.50;1.00;;;;;;5337570;26;20867;-70
2024/04/13 09:16:59;;;;;;;6.37;5.37;;;21.20;1.00;;;;;;5336594;26;20460;-71
2024/04/13 09:19:25;;;;;;;8.20;6.47;;;21.00;1.00;;;;;;5335775;26;20475;-71
2024/04/13 09:21:52;;;;;;;6.93;5.73;;;21.00;1.00;;;;;;5337934;26;20539;-72
2024/04/13 09:24:17;;;;;;;8.07;6.20;;;20.80;1.00;;;;;;5337499;26;20226;-71
2024/04/13 09:26:44;;;;;;;7.67;5.33;;;20.90;1.00;;;;;;5337833;26;20457;-72
2024/04/13 09:29:12;;;;;;;4.83;4.43;;;20.80;1.00;;;;;;5338119;26;20237;-70
2024/04/13 09:31:43;;;;;;;8.77;5.20;;;20.80;1.00;;;;;;5337317;26;21002;-70
2024/04/13 09:34:17;;;;;;;5.37;4.87;;;20.90;1.00;;;;;;5337293;26;20512;-72
2024/04/13 09:36:43;;;;;;;5.13;4.50;;;20.90;1.00;;;;;;5337406;26;20452;-73
2024/04/13 09:39:19;;;;;;;5.47;4.97;;;21.00;1.00;;;;;;5335504;26;20481;-72
2024/04/13 09:41:47;;;;;;;7.50;5.43;;;21.10;1.00;;;;;;5337511;26;20519;-72
2024/04/13 09:44:34;;;;;;;5.60;4.27;;;21.20;1.00;;;;;;5337091;26;20447;-72
2024/04/13 09:47:00;;;;;;;7.10;5.33;;;21.40;1.00;;;;;;5336416;26;20520;-72
2024/04/13 09:49:25;;;;;;;7.93;5.30;;;21.50;1.00;;;;;;5335111;26;20511;-71
2024/04/13 09:51:51;;;;;;;6.37;4.60;;;21.80;1.00;;;;;;5335241;26;20226;-72
2024/04/13 09:54:26;;;;;;;4.93;4.43;;;21.80;1.00;;;;;;5336410;26;20226;-72
2024/04/13 09:56:52;;;;;;;4.93;4.20;;;22.00;1.00;;;;;;5335057;26;20264;-71
2024/04/13 09:59:19;;;;;;;4.50;3.83;;;22.30;1.00;;;;;;5337332;26;20825;-71
2024/04/13 10:01:45;;;;;;;4.37;3.80;;;22.50;1.00;;;;;;5337199;26;20257;-71
2024/04/13 10:04:10;;;;;;;4.90;4.50;;;22.80;1.00;;;;;;5337000;26;20460;-72
2024/04/13 10:06:37;;;;;;;5.50;4.97;;;22.70;1.00;;;;;;5337482;26;20452;-70
2024/04/13 10:09:06;;;;;;;6.70;4.87;;;22.90;1.00;;;;;;5336225;26;20289;-73
2024/04/13 10:11:38;;;;;;;4.87;4.40;;;22.70;1.00;;;;;;5338781;26;20461;-71
2024/04/13 10:14:06;;;;;;;6.77;5.00;;;23.00;1.00;;;;;;5334771;26;20468;-71
2024/04/13 10:16:32;;;;;;;4.97;4.47;;;23.00;1.00;;;;;;5335154;26;20460;-71
2024/04/13 10:18:59;;;;;;;4.63;4.20;;;22.90;1.00;;;;;;5334623;26;20472;-71
2024/04/13 10:21:25;;;;;;;6.50;4.90;;;22.90;1.00;;;;;;5336813;26;20448;-71
2024/04/13 10:23:54;;;;;;;7.70;4.13;;;22.90;1.00;;;;;;5336551;26;20562;-71
2024/04/13 10:26:27;;;;;;;5.57;4.60;;;23.00;1.00;;;;;;5336431;26;20237;-71
2024/04/13 10:29:00;;;;;;;5.50;3.97;;;23.10;1.00;;;;;;5337633;26;20469;-71
2024/04/13 10:31:27;;;;;;;5.40;4.00;;;23.20;1.00;;;;;;5334878;26;20523;-72
2024/04/13 10:33:54;;;;;;;4.00;3.60;;;23.10;1.00;;;;;;5335311;26;20448;-72
2024/04/13 10:36:33;;;;;;;6.13;3.87;;;23.20;1.00;;;;;;5336466;26;20537;-73
2024/04/13 10:39:01;;;;;;;6.57;4.40;;;23.30;1.00;;;;;;5334799;26;20476;-72
2024/04/13 10:41:36;;;;;;;5.90;5.40;;;23.30;1.00;;;;;;5337541;26;20452;-72
2024/04/13 10:44:04;;;;;;;4.83;4.43;;;23.40;1.00;;;;;;5339638;26;20499;-72
2024/04/13 10:46:30;;;;;;;6.43;4.57;;;23.60;1.00;;;;;;5340709;26;20472;-72
2024/04/13 10:48:56;;;;;;;4.93;4.37;;;23.70;1.00;;;;;;5340122;26;20464;-71
2024/04/13 10:51:22;;;;;;;5.87;4.60;;;23.80;1.00;;;;;;5337657;26;20532;-71
2024/04/13 10:53:49;;;;;;;4.70;3.83;;;24.20;1.00;;;;;;5336151;26;20697;-71
2024/04/13 10:56:14;;;;;;;4.40;4.00;;;24.20;1.00;;;;;;5337012;26;20926;-73
2024/04/13 10:58:40;;;;;;;4.77;4.37;;;24.20;1.00;;;;;;5336865;26;20452;-72
2024/04/13 11:01:06;;;;;;;5.00;4.57;;;23.90;1.00;;;;;;5336907;26;20226;-74
2024/04/13 11:03:32;;;;;;;4.93;4.37;;;24.00;1.00;;;;;;5336396;26;20245;-72
2024/04/13 11:06:00;;;;;;;5.07;4.67;;;24.40;1.00;;;;;;5335020;26;20509;-72
2024/04/13 11:08:26;;;;;;;4.73;4.20;;;24.50;1.00;;;;;;5336501;26;20472;-72
2024/04/13 11:10:55;;;;;;;4.43;4.07;;;24.80;1.00;;;;;;5336498;26;20495;-72
2024/04/13 11:13:21;;;;;;;5.00;4.50;;;24.70;1.00;;;;;;5335661;26;20334;-71
2024/04/13 11:15:47;;;;;;;6.13;4.10;;;24.70;1.00;;;;;;5336439;26;20460;-70
2024/04/13 11:18:13;;;;;;;4.20;3.83;;;24.50;1.00;;;;;;5338581;26;20287;-73
2024/04/13 11:20:41;;;;;;;4.70;4.30;;;24.50;1.00;;;;;;5337612;26;20452;-70
2024/04/13 11:23:08;;;;;;;4.77;3.93;;;24.60;1.00;;;;;;5338450;26;20726;-72
2024/04/13 11:25:34;;;;;;;9.00;4.00;;;24.60;1.00;;;;;;5337568;26;20464;-71
2024/04/13 11:28:00;;;;;;;4.60;3.60;;;24.50;1.00;;;;;;5336405;26;21062;-72
2024/04/13 11:30:26;;;;;;;4.70;4.30;;;24.60;1.00;;;;;;5338336;26;20441;-71
2024/04/13 11:32:52;;;;;;;6.60;4.53;;;24.70;1.00;;;;;;5337443;26;20217;-73
2024/04/13 11:35:18;;;;;;;6.63;4.40;;;24.60;1.00;;;;;;5336992;26;20544;-72
2024/04/13 11:37:59;;;;;;;4.53;3.80;;;24.50;1.00;;;;;;5336116;26;20661;-72
2024/04/13 11:40:28;;;;;;;5.70;4.30;;;24.70;1.00;;;;;;5337129;26;20572;-72
2024/04/13 11:42:54;;;;;;;7.70;5.10;;;24.70;1.00;;;;;;5334866;26;20460;-71
2024/04/13 11:45:20;;;;;;;4.83;4.33;;;24.70;1.00;;;;;;5334651;26;20512;-72
2024/04/13 11:47:46;;;;;;;4.77;4.37;;;24.90;1.00;;;;;;5334476;26;20464;-70
2024/04/13 11:50:12;;;;;;;6.03;4.80;;;24.90;1.00;;;;;;5336746;26;20272;-70
2024/04/13 11:52:38;;;;;;;6.27;4.10;;;25.00;1.00;;;;;;5336132;26;20749;-72
2024/04/13 11:55:04;;;;;;;5.17;4.67;;;25.20;1.00;;;;;;5336250;26;20323;-72
2024/04/13 11:57:29;;;;;;;4.80;4.40;;;25.50;1.00;;;;;;5336441;26;20938;-72
2024/04/13 11:59:55;;;;;;;4.53;4.13;;;25.80;1.00;;;;;;5336380;26;20452;-72
2024/04/13 12:02:21;;;;;;;6.50;4.33;;;26.00;1.00;;;;;;5335014;26;20252;-71
2024/04/13 12:04:46;;;;;;;6.73;4.90;;;26.20;1.00;;;;;;5335771;26;20222;-72
2024/04/13 12:07:13;;;;;;;4.30;3.90;;;26.30;1.00;;;;;;5336039;26;20268;-71
2024/04/13 12:09:40;;;;;;;5.03;4.63;;;26.30;1.00;;;;;;5335912;26;20238;-72
2024/04/13 12:12:12;;;;;;;7.77;4.73;;;26.10;1.00;;;;;;5335808;26;20453;-72
2024/04/13 12:14:38;;;;;;;4.80;4.40;;;26.30;1.00;;;;;;5335321;26;20460;-71
2024/04/13 12:17:04;;;;;;;4.87;4.47;;;26.30;1.00;;;;;;5336600;26;20568;-72
2024/04/13 12:19:29;;;;;;;5.23;4.73;;;26.40;1.00;;;;;;5334145;26;20237;-72
2024/04/13 12:21:55;;;;;;;4.90;4.50;;;26.20;1.00;;;;;;5334018;26;20508;-72
2024/04/13 12:24:21;;;;;;;4.80;4.40;;;26.40;1.00;;;;;;5335610;26;20603;-72
2024/04/13 12:26:47;;;;;;;4.90;4.43;;;26.50;1.00;;;;;;5335857;26;20457;-71
2024/04/13 12:29:13;;;;;;;4.63;4.23;;;26.60;1.00;;;;;;5335184;26;20477;-71
2024/04/13 12:31:39;;;;;;;5.27;4.83;;;26.70;1.00;;;;;;5335603;26;20582;-71
2024/04/13 12:34:06;;;;;;;5.03;4.57;;;26.50;1.00;;;;;;5334909;26;20327;-71
2024/04/13 12:36:33;;;;;;;6.00;4.03;;;26.70;1.00;;;;;;5333716;26;20253;-72
2024/04/13 12:38:59;;;;;;;7.83;4.30;;;26.70;1.00;;;;;;5335155;26;20464;-72
2024/04/13 12:41:24;;;;;;;4.40;4.10;;;26.70;1.00;;;;;;5335580;26;20449;-72
2024/04/13 12:43:53;;;;;;;4.67;4.27;;;26.80;1.00;;;;;;5334982;26;20226;-72
2024/04/13 12:46:19;;;;;;;4.53;4.13;;;26.90;1.00;;;;;;5334151;26;20222;-72
2024/04/13 12:48:44;;;;;;;6.87;3.87;;;27.00;1.00;;;;;;5333898;26;21003;-72
2024/04/13 12:51:10;;;;;;;5.00;4.47;;;27.00;1.00;;;;;;5334164;26;20222;-72
2024/04/13 12:53:36;;;;;;;4.20;3.90;;;27.10;1.00;;;;;;5333521;26;20226;-71